Time;durP1;ratioP1;P1;durP2;ratioP2;P2;SDS_P1;SDS_P2;PMS_P1;PMS_P2;Temp;Humidity;BMP_temperature;BMP_pressure;BME280_temperature;BME280_humidity;BME280_pressure;Samples;Min_cycle;Max_cycle;Signal;HPM_P1;HPM_P2
2021/10/14 00:00:43;;;;;;;29.73;13.23;;;12.30;99.90;;;;;;5051532;28;25077;-77
2021/10/14 00:03:09;;;;;;;28.13;15.30;;;12.20;99.90;;;;;;5033220;28;25061;-76
2021/10/14 00:05:35;;;;;;;25.65;14.32;;;12.20;99.90;;;;;;5049517;28;25080;-77
2021/10/14 00:08:01;;;;;;;27.80;15.68;;;12.30;99.90;;;;;;5025885;28;25072;-76
2021/10/14 00:10:28;;;;;;;25.05;13.80;;;12.30;99.90;;;;;;5040780;28;25078;-77
2021/10/14 00:12:54;;;;;;;24.17;14.40;;;12.30;99.90;;;;;;5040772;28;25079;-77
2021/10/14 00:15:21;;;;;;;33.03;15.60;;;12.40;99.90;;;;;;5048794;28;25053;-76
2021/10/14 00:17:46;;;;;;;28.13;14.68;;;12.30;99.90;;;;;;5041606;28;25133;-76
2021/10/14 00:20:12;;;;;;;28.20;15.88;;;12.30;99.90;;;;;;5049384;28;25152;-75
2021/10/14 00:22:38;;;;;;;24.95;16.02;;;12.40;99.90;;;;;;5037938;28;25062;-76
2021/10/14 00:25:04;;;;;;;31.42;16.80;;;12.40;99.90;;;;;;5052069;28;25097;-76
2021/10/14 00:27:30;;;;;;;30.52;16.10;;;12.40;99.90;;;;;;5051754;28;25082;-74
2021/10/14 00:29:57;;;;;;;31.83;17.50;;;12.40;99.90;;;;;;5051872;28;25053;-77
2021/10/14 00:32:22;;;;;;;30.58;17.73;;;12.40;99.90;;;;;;5051920;28;25114;-75
2021/10/14 00:34:48;;;;;;;24.23;15.73;;;12.40;99.90;;;;;;5050067;28;25131;-77
2021/10/14 00:37:14;;;;;;;26.55;15.55;;;12.40;99.90;;;;;;5032239;28;25052;-76
2021/10/14 00:39:39;;;;;;;27.98;17.55;;;12.50;99.90;;;;;;5031664;28;25069;-76
2021/10/14 00:42:05;;;;;;;26.52;16.55;;;12.50;99.90;;;;;;5038330;28;25099;-76
2021/10/14 00:44:52;;;;;;;34.15;18.98;;;12.50;99.90;;;;;;5054242;28;25146;-75
2021/10/14 00:47:19;;;;;;;30.40;16.85;;;12.40;99.90;;;;;;5049675;28;25080;-76
2021/10/14 00:49:44;;;;;;;30.92;16.73;;;12.40;99.90;;;;;;5050494;28;25106;-77
2021/10/14 00:52:10;;;;;;;36.25;18.45;;;12.40;99.90;;;;;;5050005;28;25095;-76
2021/10/14 00:54:37;;;;;;;34.75;18.45;;;12.30;99.90;;;;;;5048877;28;25050;-73
2021/10/14 00:57:03;;;;;;;30.15;17.58;;;12.40;99.90;;;;;;5048435;28;25119;-77
2021/10/14 00:59:30;;;;;;;38.08;18.50;;;12.40;99.90;;;;;;5033980;28;25116;-76
2021/10/14 01:01:56;;;;;;;32.45;18.95;;;12.40;99.90;;;;;;5055206;28;25109;-76
2021/10/14 01:04:21;;;;;;;41.30;19.60;;;12.50;99.90;;;;;;5051192;28;25077;-77
2021/10/14 01:06:49;;;;;;;37.42;20.55;;;12.40;99.90;;;;;;5033422;28;25065;-77
2021/10/14 01:09:16;;;;;;;34.75;19.73;;;12.50;99.90;;;;;;5054077;28;25078;-77
2021/10/14 01:11:41;;;;;;;29.85;17.58;;;12.50;99.90;;;;;;5051603;28;25063;-78
2021/10/14 01:14:07;;;;;;;31.02;17.73;;;12.50;99.90;;;;;;5050671;28;25080;-76
2021/10/14 01:16:41;;;;;;;33.22;19.02;;;12.50;99.90;;;;;;5045775;28;25062;-77
2021/10/14 01:19:07;;;;;;;38.38;20.75;;;12.50;99.90;;;;;;5048485;28;25142;-77
2021/10/14 01:21:33;;;;;;;36.38;19.83;;;12.40;99.90;;;;;;5049550;28;25157;-77
2021/10/14 01:23:59;;;;;;;32.65;19.02;;;12.50;99.90;;;;;;5048723;28;25100;-76
2021/10/14 01:26:26;;;;;;;36.17;19.48;;;12.40;99.90;;;;;;5026890;28;25100;-76
2021/10/14 01:28:52;;;;;;;36.28;20.23;;;12.50;99.90;;;;;;5049210;28;25103;-78
2021/10/14 01:31:26;;;;;;;38.38;18.52;;;12.40;99.90;;;;;;5051200;28;25089;-76
2021/10/14 01:33:53;;;;;;;30.38;18.00;;;12.50;99.90;;;;;;5050345;28;25053;-77
2021/10/14 01:36:19;;;;;;;32.90;19.33;;;12.50;99.90;;;;;;5050170;28;25065;-76
2021/10/14 01:38:45;;;;;;;44.38;22.02;;;12.40;99.90;;;;;;5049001;28;25056;-76
2021/10/14 01:41:11;;;;;;;40.97;21.80;;;12.40;99.90;;;;;;5049146;28;25080;-77
2021/10/14 01:43:38;;;;;;;35.72;20.80;;;12.40;99.90;;;;;;5051875;28;25062;-76
2021/10/14 01:46:04;;;;;;;33.38;21.55;;;12.40;99.90;;;;;;5055379;28;25055;-76
2021/10/14 01:48:30;;;;;;;38.80;21.83;;;12.50;99.90;;;;;;5048465;28;25078;-77
2021/10/14 01:50:57;;;;;;;39.40;21.23;;;12.50;99.90;;;;;;5052929;28;25061;-78
2021/10/14 01:53:23;;;;;;;41.88;22.15;;;12.60;99.90;;;;;;5049657;28;25064;-77
2021/10/14 01:55:49;;;;;;;41.65;23.75;;;12.50;99.90;;;;;;5048932;28;25132;-76
2021/10/14 01:58:15;;;;;;;35.65;20.38;;;12.60;99.90;;;;;;5047166;28;25064;-77
2021/10/14 02:00:41;;;;;;;36.28;21.13;;;12.60;99.90;;;;;;5050430;28;25078;-78
2021/10/14 02:03:07;;;;;;;29.77;19.83;;;12.60;99.90;;;;;;5043875;28;25146;-78
2021/10/14 02:05:33;;;;;;;31.48;19.83;;;12.60;99.90;;;;;;5049870;28;25059;-77
2021/10/14 02:07:59;;;;;;;47.85;23.42;;;12.60;99.90;;;;;;5049900;28;25128;-76
2021/10/14 02:10:25;;;;;;;36.10;22.92;;;12.60;99.90;;;;;;5050270;28;25164;-76
2021/10/14 02:12:54;;;;;;;41.25;20.90;;;12.60;99.90;;;;;;5053756;28;25104;-77
2021/10/14 02:15:19;;;;;;;38.35;23.20;;;12.60;99.90;;;;;;5037867;28;25058;-78
2021/10/14 02:17:45;;;;;;;40.60;22.83;;;12.60;99.90;;;;;;5073539;28;25096;-78
2021/10/14 02:20:18;;;;;;;34.13;21.30;;;12.60;99.90;;;;;;5068165;28;25051;-79
2021/10/14 02:22:46;;;;;;;38.97;23.00;;;12.60;99.90;;;;;;5062631;28;25053;-78
2021/10/14 02:25:14;;;;;;;43.42;25.45;;;12.70;99.90;;;;;;5055842;28;25080;-76
2021/10/14 02:27:40;;;;;;;37.55;22.33;;;12.70;99.90;;;;;;5049765;28;25087;-78
2021/10/14 02:30:07;;;;;;;37.67;22.40;;;12.60;99.90;;;;;;5052375;28;25080;-76
2021/10/14 02:32:33;;;;;;;41.30;23.80;;;12.70;99.90;;;;;;5049895;28;25056;-76
2021/10/14 02:34:59;;;;;;;34.38;22.55;;;12.70;99.90;;;;;;5052946;28;25138;-77
2021/10/14 02:37:26;;;;;;;33.50;21.48;;;12.70;99.90;;;;;;5046547;28;25157;-76
2021/10/14 02:39:51;;;;;;;40.63;22.55;;;12.70;99.90;;;;;;5048495;28;25151;-79
2021/10/14 02:42:17;;;;;;;39.75;22.95;;;12.80;99.90;;;;;;5049643;28;25054;-77
2021/10/14 02:44:43;;;;;;;37.40;22.33;;;12.80;99.90;;;;;;5049959;28;25135;-76
2021/10/14 02:47:09;;;;;;;35.88;23.75;;;12.70;99.90;;;;;;5037579;28;25071;-76
2021/10/14 02:49:35;;;;;;;39.63;22.35;;;12.70;99.90;;;;;;5046579;28;25068;-76
2021/10/14 02:52:00;;;;;;;37.70;23.17;;;12.80;99.90;;;;;;5047943;28;25054;-75
2021/10/14 02:54:26;;;;;;;37.63;23.45;;;12.80;99.90;;;;;;5031327;28;25104;-77
2021/10/14 02:56:51;;;;;;;40.00;22.95;;;12.80;99.90;;;;;;5047193;28;25170;-78
2021/10/14 02:59:17;;;;;;;36.10;23.55;;;12.70;99.90;;;;;;5042944;28;25091;-77
2021/10/14 03:01:43;;;;;;;42.63;24.10;;;12.70;99.90;;;;;;5048441;28;25067;-77
2021/10/14 03:04:08;;;;;;;39.83;23.83;;;12.70;99.90;;;;;;5050691;28;25029;-77
2021/10/14 03:06:34;;;;;;;38.90;25.15;;;12.70;99.90;;;;;;5046047;28;25115;-77
2021/10/14 03:09:00;;;;;;;38.00;22.48;;;12.70;99.90;;;;;;5045810;28;25082;-76
2021/10/14 03:11:25;;;;;;;34.80;23.50;;;12.60;99.90;;;;;;5047494;28;25100;-76
2021/10/14 03:13:54;;;;;;;48.50;25.90;;;12.70;99.90;;;;;;5029355;28;25104;-77
2021/10/14 03:16:20;;;;;;;42.45;25.13;;;12.60;99.90;;;;;;5048555;28;25091;-74
2021/10/14 03:18:45;;;;;;;39.25;24.92;;;12.60;99.90;;;;;;5038929;28;25052;-75
2021/10/14 03:21:11;;;;;;;44.55;24.77;;;12.60;99.90;;;;;;5052132;28;25052;-75
2021/10/14 03:23:37;;;;;;;45.58;26.38;;;12.60;99.90;;;;;;5052644;28;25077;-75
2021/10/14 03:26:04;;;;;;;36.58;21.95;;;12.70;99.90;;;;;;5051865;28;25071;-77
2021/10/14 03:28:30;;;;;;;37.28;22.48;;;12.70;99.90;;;;;;5047325;28;25093;-77
2021/10/14 03:30:57;;;;;;;47.08;26.08;;;12.90;99.90;;;;;;5035064;28;25072;-73
2021/10/14 03:33:23;;;;;;;38.22;24.05;;;12.80;99.90;;;;;;5042756;28;25048;-75
2021/10/14 03:35:48;;;;;;;43.65;24.10;;;12.80;99.90;;;;;;5048649;28;25146;-75
2021/10/14 03:38:15;;;;;;;38.97;25.15;;;12.70;99.90;;;;;;5048022;28;25072;-75
2021/10/14 03:40:41;;;;;;;49.78;27.85;;;12.70;99.90;;;;;;5029801;28;25077;-74
2021/10/14 03:43:08;;;;;;;46.50;25.92;;;12.80;99.90;;;;;;5045307;28;25058;-75
2021/10/14 03:45:36;;;;;;;53.10;29.10;;;12.80;99.90;;;;;;5050299;28;25049;-74
2021/10/14 03:48:01;;;;;;;42.83;26.42;;;12.70;99.90;;;;;;5056012;28;25066;-76
2021/10/14 03:50:27;;;;;;;48.25;28.23;;;12.70;99.90;;;;;;5055799;28;25064;-75
2021/10/14 03:52:53;;;;;;;42.78;26.83;;;12.70;99.90;;;;;;5046629;28;25077;-76
2021/10/14 03:55:19;;;;;;;35.15;25.02;;;12.70;99.90;;;;;;5047248;28;25080;-75
2021/10/14 03:57:44;;;;;;;55.63;30.33;;;12.80;99.90;;;;;;5047933;28;25089;-74
2021/10/14 04:00:11;;;;;;;56.00;31.63;;;12.70;99.90;;;;;;5045596;28;25079;-74
2021/10/14 04:02:47;;;;;;;42.17;29.63;;;12.70;99.90;;;;;;5046007;28;25157;-75
2021/10/14 04:05:14;;;;;;;53.50;31.40;;;12.70;99.90;;;;;;5046530;28;25123;-76
2021/10/14 04:08:17;;;;;;;53.85;33.00;;;12.70;99.90;;;;;;5044304;28;25081;-75
2021/10/14 04:10:44;;;;;;;;;;;12.70;99.90;;;;;;5055900;28;25054;-76
2021/10/14 04:13:09;;;;;;;45.90;30.02;;;12.70;99.90;;;;;;5037993;28;24074;-76
2021/10/14 04:15:36;;;;;;;57.55;34.95;;;12.70;99.90;;;;;;5050625;28;25065;-74
2021/10/14 04:18:02;;;;;;;57.10;32.78;;;12.70;99.90;;;;;;5057370;28;25062;-74
2021/10/14 04:20:27;;;;;;;61.42;34.42;;;12.70;99.90;;;;;;5040024;28;25061;-75
2021/10/14 04:22:53;;;;;;;56.08;33.30;;;12.70;99.90;;;;;;5049080;28;25126;-74
2021/10/14 04:25:20;;;;;;;55.08;31.25;;;12.70;99.90;;;;;;5053805;28;25070;-74
2021/10/14 04:27:46;;;;;;;40.53;28.67;;;12.80;99.90;;;;;;5049811;28;25055;-77
2021/10/14 04:30:12;;;;;;;52.08;32.63;;;12.80;99.90;;;;;;5049397;28;25076;-77
2021/10/14 04:32:37;;;;;;;41.92;29.65;;;12.80;99.90;;;;;;5050755;28;25152;-74
2021/10/14 04:35:10;;;;;;;58.22;32.13;;;12.80;99.90;;;;;;5053683;28;25048;-75
2021/10/14 04:37:43;;;;;;;53.58;31.70;;;12.80;99.90;;;;;;5044065;28;25254;-78
2021/10/14 04:40:10;;;;;;;55.20;34.47;;;12.80;99.90;;;;;;5043734;28;25068;-74
2021/10/14 04:42:36;;;;;;;58.80;33.67;;;12.70;99.90;;;;;;5059512;28;25061;-75
2021/10/14 04:45:03;;;;;;;47.88;29.88;;;12.70;99.90;;;;;;5055058;28;25136;-77
2021/10/14 04:47:29;;;;;;;54.55;31.98;;;12.80;99.90;;;;;;5054377;28;25071;-77
2021/10/14 04:49:54;;;;;;;49.42;31.08;;;12.70;99.90;;;;;;5052337;28;25136;-78
2021/10/14 04:52:21;;;;;;;50.95;31.73;;;12.80;99.90;;;;;;5055367;28;25105;-77
2021/10/14 04:54:49;;;;;;;44.97;29.88;;;12.90;99.90;;;;;;5046805;28;25053;-76
2021/10/14 04:57:14;;;;;;;47.90;29.33;;;12.90;99.90;;;;;;5042533;28;25110;-75
2021/10/14 04:59:40;;;;;;;48.63;32.17;;;13.00;99.90;;;;;;5041831;28;25095;-75
2021/10/14 05:02:06;;;;;;;51.25;32.60;;;13.00;99.90;;;;;;5042193;28;25054;-75
2021/10/14 05:04:31;;;;;;;53.20;31.67;;;13.00;99.90;;;;;;5041154;28;25112;-77
2021/10/14 05:06:57;;;;;;;58.17;33.65;;;13.00;99.90;;;;;;5048431;28;25081;-74
2021/10/14 05:09:22;;;;;;;54.90;31.35;;;12.90;99.90;;;;;;5049294;28;25074;-77
2021/10/14 05:11:54;;;;;;;43.63;30.70;;;13.00;99.90;;;;;;5045517;28;25061;-78
2021/10/14 05:14:26;;;;;;;49.27;29.97;;;13.00;99.90;;;;;;5043491;28;25081;-77
2021/10/14 05:16:54;;;;;;;;;;;13.00;99.90;;;;;;5047531;28;25142;-76
2021/10/14 05:19:19;;;;;;;53.20;32.30;;;13.00;99.90;;;;;;5051024;28;25051;-77
2021/10/14 05:21:45;;;;;;;55.40;36.20;;;13.00;99.90;;;;;;5057204;28;25131;-77
2021/10/14 05:24:10;;;;;;;56.80;33.28;;;12.90;99.90;;;;;;5044224;28;25081;-77
2021/10/14 05:26:38;;;;;;;55.80;30.77;;;12.90;99.90;;;;;;5042338;28;25088;-76
2021/10/14 05:29:04;;;;;;;54.20;31.77;;;12.90;99.90;;;;;;5038349;28;25071;-77
2021/10/14 05:31:29;;;;;;;52.88;31.67;;;13.00;99.90;;;;;;5047118;28;25155;-76
2021/10/14 05:34:01;;;;;;;51.88;32.88;;;13.00;99.90;;;;;;5053033;28;25066;-77
2021/10/14 05:36:27;;;;;;;50.70;31.60;;;13.00;99.90;;;;;;5054657;28;25061;-78
2021/10/14 05:38:54;;;;;;;47.40;29.20;;;13.00;99.90;;;;;;5049353;28;25122;-76
2021/10/14 05:41:21;;;;;;;55.42;32.80;;;13.00;99.90;;;;;;5043071;28;25052;-78
2021/10/14 05:43:47;;;;;;;52.67;32.40;;;13.00;99.90;;;;;;5038960;28;25114;-77
2021/10/14 05:46:13;;;;;;;56.08;32.72;;;13.00;99.90;;;;;;5053798;28;25095;-76
2021/10/14 05:48:39;;;;;;;55.03;31.95;;;13.00;99.90;;;;;;5053608;28;25046;-75
2021/10/14 05:51:05;;;;;;;56.80;32.83;;;13.10;99.90;;;;;;5039714;28;25074;-76
2021/10/14 05:53:30;;;;;;;56.83;32.78;;;13.10;99.90;;;;;;5060596;28;25047;-77
2021/10/14 05:55:57;;;;;;;45.20;28.90;;;13.00;99.90;;;;;;5050794;28;25111;-77
2021/10/14 05:58:24;;;;;;;53.28;31.40;;;13.00;99.90;;;;;;5050508;28;25136;-76
2021/10/14 06:00:49;;;;;;;44.72;28.73;;;13.00;99.90;;;;;;5053699;28;25074;-77
2021/10/14 06:03:15;;;;;;;56.42;31.67;;;13.10;99.90;;;;;;5046102;28;25057;-75
2021/10/14 06:05:41;;;;;;;54.80;31.70;;;13.00;99.90;;;;;;5035098;28;25065;-75
2021/10/14 06:08:06;;;;;;;49.00;32.05;;;13.00;99.90;;;;;;5048378;28;25136;-73
2021/10/14 06:10:32;;;;;;;42.30;28.25;;;13.10;99.90;;;;;;5051658;28;25177;-77
2021/10/14 06:12:58;;;;;;;48.65;31.50;;;13.10;99.90;;;;;;5052827;28;25073;-75
2021/10/14 06:15:24;;;;;;;56.15;31.65;;;13.10;99.90;;;;;;5049375;28;25097;-74
2021/10/14 06:17:51;;;;;;;52.15;30.05;;;13.00;99.90;;;;;;5052684;28;25065;-76
2021/10/14 06:20:18;;;;;;;48.40;32.13;;;13.10;99.90;;;;;;5050197;28;25072;-77
2021/10/14 06:22:44;;;;;;;52.88;31.17;;;13.20;99.90;;;;;;5035076;28;25087;-75
2021/10/14 06:25:10;;;;;;;48.83;30.67;;;13.10;99.90;;;;;;5033904;28;25181;-74
2021/10/14 06:27:36;;;;;;;47.88;31.20;;;13.10;99.90;;;;;;5070529;28;25060;-76
2021/10/14 06:30:06;;;;;;;52.83;31.80;;;13.20;99.90;;;;;;5071252;28;25058;-76
2021/10/14 06:32:32;;;;;;;50.03;30.35;;;13.20;99.90;;;;;;5066322;28;25074;-76
2021/10/14 06:34:58;;;;;;;50.95;30.60;;;13.20;99.90;;;;;;5083406;28;25051;-76
2021/10/14 06:37:24;;;;;;;58.15;32.53;;;13.20;99.90;;;;;;5057458;28;25057;-74
2021/10/14 06:39:50;;;;;;;59.20;34.33;;;13.20;99.90;;;;;;5053608;28;25185;-77
2021/10/14 06:42:15;;;;;;;57.53;32.33;;;13.20;99.90;;;;;;5052364;28;25065;-77
2021/10/14 06:44:41;;;;;;;53.78;32.45;;;13.20;99.90;;;;;;5052103;28;25072;-76
2021/10/14 06:47:06;;;;;;;60.15;35.00;;;13.20;99.90;;;;;;5051390;28;25148;-76
2021/10/14 06:49:32;;;;;;;54.95;31.13;;;13.20;99.90;;;;;;5053228;28;25113;-76
2021/10/14 06:51:57;;;;;;;57.17;32.25;;;13.20;99.90;;;;;;5052994;28;25082;-75
2021/10/14 06:54:23;;;;;;;62.03;31.80;;;13.20;99.90;;;;;;5051085;28;25070;-78
2021/10/14 06:56:49;;;;;;;50.38;31.77;;;13.20;99.90;;;;;;5053146;28;25129;-76
2021/10/14 06:59:15;;;;;;;53.83;29.95;;;13.20;99.90;;;;;;5050655;28;25078;-76
2021/10/14 07:01:42;;;;;;;48.97;31.30;;;13.20;99.90;;;;;;5046778;28;25109;-77
2021/10/14 07:04:07;;;;;;;48.97;31.35;;;13.20;99.90;;;;;;5047995;28;25060;-75
2021/10/14 07:06:33;;;;;;;55.33;32.53;;;13.20;99.90;;;;;;5035476;28;25054;-76
2021/10/14 07:08:58;;;;;;;48.53;30.92;;;13.20;99.90;;;;;;5051773;28;25099;-77
2021/10/14 07:11:30;;;;;;;55.10;32.55;;;13.30;99.90;;;;;;5059482;28;25100;-76
2021/10/14 07:13:56;;;;;;;53.10;31.90;;;13.30;99.90;;;;;;5051718;28;25096;-76
2021/10/14 07:16:22;;;;;;;44.78;28.10;;;13.20;99.90;;;;;;5060290;28;25115;-74
2021/10/14 07:18:48;;;;;;;55.20;30.40;;;13.30;99.90;;;;;;5056116;28;25061;-77
2021/10/14 07:21:16;;;;;;;53.92;33.50;;;13.30;99.90;;;;;;5058720;28;25086;-76
2021/10/14 07:23:42;;;;;;;56.83;32.10;;;13.30;99.90;;;;;;5044798;28;25058;-74
2021/10/14 07:26:07;;;;;;;49.08;32.65;;;13.30;99.90;;;;;;5060473;28;25059;-73
2021/10/14 07:28:33;;;;;;;49.78;32.03;;;13.20;99.90;;;;;;5052279;28;25057;-75
2021/10/14 07:30:58;;;;;;;54.28;32.17;;;13.30;99.90;;;;;;5042109;28;25052;-74
2021/10/14 07:33:24;;;;;;;53.50;31.80;;;13.20;99.90;;;;;;5045150;28;25079;-75
2021/10/14 07:35:50;;;;;;;52.33;31.38;;;13.20;99.90;;;;;;5052535;28;25045;-75
2021/10/14 07:38:16;;;;;;;47.13;30.13;;;13.20;99.90;;;;;;5053614;28;25102;-78
2021/10/14 07:40:43;;;;;;;52.88;30.80;;;13.30;99.90;;;;;;5051692;28;25146;-77
2021/10/14 07:43:13;;;;;;;50.20;32.83;;;13.30;99.90;;;;;;5019955;28;25057;-78
2021/10/14 07:45:39;;;;;;;51.45;32.83;;;13.30;99.90;;;;;;5054468;28;25055;-77
2021/10/14 07:48:07;;;;;;;60.25;36.28;;;13.20;99.90;;;;;;5068411;28;25047;-76
2021/10/14 07:50:34;;;;;;;55.53;33.15;;;13.30;99.90;;;;;;5061811;28;25066;-76
2021/10/14 07:53:00;;;;;;;52.72;31.02;;;13.30;99.90;;;;;;5073636;28;25078;-77
2021/10/14 07:55:27;;;;;;;47.55;28.33;;;13.30;99.90;;;;;;5042559;28;25113;-75
2021/10/14 07:57:52;;;;;;;57.53;31.95;;;13.40;99.90;;;;;;5038819;28;25158;-76
2021/10/14 08:00:18;;;;;;;50.08;31.83;;;13.30;99.90;;;;;;5052601;28;25088;-76
2021/10/14 08:02:43;;;;;;;48.63;29.85;;;13.30;99.90;;;;;;5052455;28;25081;-76
2021/10/14 08:05:09;;;;;;;53.53;33.17;;;13.30;99.90;;;;;;5046649;28;25068;-75
2021/10/14 08:07:36;;;;;;;52.38;33.38;;;13.20;99.90;;;;;;5044713;28;25136;-75
2021/10/14 08:10:03;;;;;;;54.10;33.05;;;13.20;99.90;;;;;;5046329;28;25057;-75
2021/10/14 08:12:29;;;;;;;47.78;28.02;;;13.20;99.90;;;;;;5068875;28;25053;-77
2021/10/14 08:14:54;;;;;;;52.85;35.50;;;13.30;99.90;;;;;;5041302;28;25108;-77
2021/10/14 08:17:20;;;;;;;51.92;34.92;;;13.30;99.90;;;;;;5054162;28;25066;-76
2021/10/14 08:19:45;;;;;;;54.20;33.38;;;13.20;99.90;;;;;;5054631;28;25063;-75
2021/10/14 08:22:12;;;;;;;49.08;30.77;;;13.30;99.90;;;;;;5052624;28;25058;-77
2021/10/14 08:24:39;;;;;;;53.78;31.35;;;13.40;99.90;;;;;;5037105;28;25048;-76
2021/10/14 08:27:05;;;;;;;48.85;32.30;;;13.40;99.90;;;;;;5054204;28;25058;-76
2021/10/14 08:29:32;;;;;;;53.35;31.33;;;13.40;99.90;;;;;;5073201;28;25161;-76
2021/10/14 08:32:01;;;;;;;47.45;32.58;;;13.40;99.90;;;;;;5054702;28;25117;-76
2021/10/14 08:34:27;;;;;;;47.38;30.13;;;13.40;99.90;;;;;;5055216;28;25085;-75
2021/10/14 08:36:52;;;;;;;45.20;28.65;;;13.50;99.90;;;;;;5053755;28;25052;-76
2021/10/14 08:39:18;;;;;;;46.95;30.55;;;13.60;99.90;;;;;;5054528;28;25073;-76
2021/10/14 08:41:46;;;;;;;43.40;28.27;;;13.60;99.90;;;;;;5055674;28;25069;-75
2021/10/14 08:44:19;;;;;;;43.88;29.75;;;13.60;99.90;;;;;;5054424;28;25064;-74
2021/10/14 08:46:47;;;;;;;38.53;27.30;;;13.60;99.90;;;;;;5038048;28;25135;-75
2021/10/14 08:49:15;;;;;;;43.38;29.10;;;13.60;99.90;;;;;;5054392;28;25116;-76
2021/10/14 08:51:40;;;;;;;40.05;27.27;;;13.50;99.90;;;;;;5055643;28;25136;-76
2021/10/14 08:54:06;;;;;;;45.80;28.85;;;13.60;99.90;;;;;;5061260;28;25093;-77
2021/10/14 08:56:35;;;;;;;42.95;29.02;;;13.60;99.90;;;;;;5061369;28;25077;-75
2021/10/14 08:59:01;;;;;;;47.38;30.20;;;13.60;99.90;;;;;;5079204;28;25080;-76
2021/10/14 09:01:26;;;;;;;48.40;30.52;;;13.60;99.90;;;;;;5041126;28;25052;-76
2021/10/14 09:03:54;;;;;;;40.25;28.73;;;13.60;99.90;;;;;;5040623;28;25163;-75
2021/10/14 09:06:20;;;;;;;43.75;30.13;;;13.60;99.90;;;;;;5042167;28;25103;-75
2021/10/14 09:08:52;;;;;;;42.17;29.02;;;13.60;99.90;;;;;;5046710;28;25103;-77
2021/10/14 09:11:35;;;;;;;36.63;26.35;;;13.60;99.90;;;;;;5056198;28;25085;-77
2021/10/14 09:14:05;;;;;;;43.40;28.00;;;13.60;99.90;;;;;;5048293;28;25067;-77
2021/10/14 09:16:41;;;;;;;40.55;27.58;;;13.60;99.90;;;;;;5049055;28;25088;-76
2021/10/14 09:19:22;;;;;;;47.42;30.25;;;13.60;99.90;;;;;;5045611;28;25066;-76
2021/10/14 09:21:56;;;;;;;40.38;29.25;;;13.60;99.90;;;;;;5056215;28;25066;-77
2021/10/14 09:24:35;;;;;;;43.78;27.60;;;13.60;99.90;;;;;;5045117;28;25140;-78
2021/10/14 09:27:05;;;;;;;44.28;28.27;;;13.60;99.90;;;;;;5036128;28;25102;-76
2021/10/14 09:29:34;;;;;;;40.92;27.55;;;13.70;99.90;;;;;;5045598;28;25081;-76
2021/10/14 09:32:01;;;;;;;39.70;27.23;;;13.70;99.90;;;;;;5050785;28;25066;-77
2021/10/14 09:34:34;;;;;;;39.33;29.38;;;13.80;99.90;;;;;;5036540;28;25102;-77
2021/10/14 09:37:02;;;;;;;35.88;26.58;;;13.80;99.90;;;;;;5053741;28;25060;-77
2021/10/14 09:39:28;;;;;;;38.72;27.50;;;13.80;99.90;;;;;;5054484;28;25053;-77
2021/10/14 09:41:57;;;;;;;42.08;27.85;;;13.80;99.90;;;;;;5054589;28;25087;-75
2021/10/14 09:44:26;;;;;;;40.60;26.95;;;13.80;99.90;;;;;;5054324;28;25102;-79
2021/10/14 09:46:56;;;;;;;41.75;27.52;;;13.80;99.90;;;;;;5053651;28;25071;-75
2021/10/14 09:49:28;;;;;;;37.85;27.88;;;13.90;99.90;;;;;;5053366;28;25083;-78
2021/10/14 09:51:57;;;;;;;36.80;27.27;;;13.90;99.90;;;;;;5054063;28;25071;-77
2021/10/14 09:54:26;;;;;;;38.90;29.38;;;13.80;99.90;;;;;;5052662;28;25053;-76
2021/10/14 09:56:51;;;;;;;40.25;27.67;;;13.80;99.90;;;;;;5053076;28;25064;-76
2021/10/14 09:59:17;;;;;;;39.78;29.05;;;13.90;99.90;;;;;;5054033;28;25150;-75
2021/10/14 10:01:44;;;;;;;39.80;29.30;;;14.00;99.90;;;;;;5029486;28;25123;-76
2021/10/14 10:04:10;;;;;;;46.00;29.92;;;14.00;99.90;;;;;;5039252;28;25072;-76
2021/10/14 10:06:38;;;;;;;41.20;30.17;;;14.00;99.90;;;;;;5053670;28;25079;-76
2021/10/14 10:09:14;;;;;;;42.75;30.38;;;14.00;99.90;;;;;;5060668;28;25125;-76
2021/10/14 10:11:48;;;;;;;40.95;29.83;;;14.00;99.90;;;;;;5035798;28;25114;-76
2021/10/14 10:14:14;;;;;;;40.20;29.65;;;14.10;99.90;;;;;;5059251;28;25097;-77
2021/10/14 10:17:02;;;;;;;41.03;29.58;;;14.00;99.90;;;;;;5037447;28;25063;-75
2021/10/14 10:19:46;;;;;;;41.70;31.27;;;14.00;99.90;;;;;;5059319;28;25160;-76
2021/10/14 10:22:35;;;;;;;46.00;31.10;;;13.90;99.90;;;;;;5064060;28;25064;-77
2021/10/14 10:25:25;;;;;;;42.47;29.42;;;13.90;99.90;;;;;;5066849;28;25069;-73
2021/10/14 10:27:52;;;;;;;47.50;32.63;;;13.90;99.90;;;;;;5044860;28;25073;-77
2021/10/14 10:30:38;;;;;;;49.78;33.00;;;13.90;99.90;;;;;;5062492;28;25079;-75
2021/10/14 10:33:06;;;;;;;46.50;33.65;;;13.90;99.90;;;;;;5051960;28;25134;-77
2021/10/14 10:35:49;;;;;;;42.47;31.38;;;13.90;99.90;;;;;;5058494;28;25064;-74
2021/10/14 10:38:16;;;;;;;42.67;33.25;;;14.00;99.90;;;;;;5076771;28;25146;-76
2021/10/14 10:40:49;;;;;;;44.63;33.45;;;14.00;99.90;;;;;;5062808;28;25084;-78
2021/10/14 10:43:18;;;;;;;47.10;32.95;;;14.10;99.90;;;;;;5064624;28;25084;-76
2021/10/14 10:45:52;;;;;;;44.03;34.15;;;14.10;99.90;;;;;;5053684;28;25079;-76
2021/10/14 10:48:41;;;;;;;43.50;31.95;;;14.20;99.90;;;;;;5054285;28;25077;-77
2021/10/14 10:51:08;;;;;;;43.40;32.60;;;14.20;99.90;;;;;;5041213;28;25164;-78
2021/10/14 10:53:37;;;;;;;46.50;32.85;;;14.30;99.90;;;;;;5054946;28;25066;-76
2021/10/14 10:56:03;;;;;;;37.65;28.67;;;14.50;99.90;;;;;;5053547;28;25134;-77
2021/10/14 10:58:32;;;;;;;40.78;30.38;;;14.60;99.90;;;;;;5053470;28;25155;-77
2021/10/14 11:00:59;;;;;;;37.33;28.85;;;14.70;99.90;;;;;;5052900;28;25103;-77
2021/10/14 11:03:26;;;;;;;41.40;29.20;;;14.90;99.90;;;;;;5041907;28;25063;-76
2021/10/14 11:05:54;;;;;;;37.42;28.75;;;14.70;99.90;;;;;;5033970;28;25080;-77
2021/10/14 11:08:22;;;;;;;36.13;28.45;;;14.70;99.90;;;;;;5055022;28;25059;-77
2021/10/14 11:10:56;;;;;;;39.53;28.27;;;14.70;99.90;;;;;;5040843;28;25051;-75
2021/10/14 11:13:27;;;;;;;35.05;26.83;;;14.80;99.90;;;;;;5052428;28;25066;-76
2021/10/14 11:15:54;;;;;;;37.72;28.23;;;14.70;99.90;;;;;;5061483;28;25083;-76
2021/10/14 11:18:26;;;;;;;38.20;27.30;;;14.70;99.90;;;;;;5056795;28;25067;-77
2021/10/14 11:21:14;;;;;;;39.17;27.83;;;14.80;99.90;;;;;;5075490;28;25056;-77
2021/10/14 11:23:46;;;;;;;35.55;26.58;;;14.80;99.90;;;;;;5042178;28;25059;-76
2021/10/14 11:26:34;;;;;;;38.90;28.02;;;14.80;99.90;;;;;;5025504;28;25071;-76
2021/10/14 11:31:53;;;;;;;36.78;26.95;;;14.90;99.90;;;;;;5060217;28;25068;-77
2021/10/14 11:34:21;;;;;;;39.28;27.02;;;14.90;99.90;;;;;;5076120;28;25070;-76
2021/10/14 11:36:57;;;;;;;34.97;26.52;;;15.00;99.90;;;;;;5047600;28;25046;-76
2021/10/14 11:39:50;;;;;;;37.25;28.17;;;14.90;99.90;;;;;;5060389;28;25054;-78
2021/10/14 11:42:20;;;;;;;35.45;27.23;;;15.00;99.90;;;;;;5057193;28;25059;-76
2021/10/14 11:44:52;;;;;;;34.33;26.10;;;15.10;99.90;;;;;;5057408;28;25087;-76
2021/10/14 11:47:20;;;;;;;29.95;24.48;;;15.10;99.90;;;;;;5056554;28;25141;-78
2021/10/14 11:49:56;;;;;;;30.83;23.08;;;15.20;99.90;;;;;;5043220;28;25066;-75
2021/10/14 11:52:22;;;;;;;31.00;22.95;;;15.50;99.90;;;;;;5043733;28;25059;-78
2021/10/14 11:54:49;;;;;;;33.75;22.88;;;16.00;99.90;;;;;;5080033;28;25048;-78
2021/10/14 11:57:17;;;;;;;29.10;20.00;;;16.10;99.90;;;;;;5056039;28;25053;-76
2021/10/14 11:59:43;;;;;;;24.30;18.90;;;16.20;99.90;;;;;;5061809;28;25097;-77
2021/10/14 12:02:20;;;;;;;31.20;19.30;;;16.10;99.90;;;;;;5053210;28;25092;-78
2021/10/14 12:04:53;;;;;;;22.90;17.75;;;16.00;99.90;;;;;;5049626;28;25072;-75
2021/10/14 12:07:24;;;;;;;22.90;15.52;;;15.90;99.90;;;;;;5058486;28;25087;-75
2021/10/14 12:09:50;;;;;;;23.65;17.50;;;15.90;99.90;;;;;;5070833;28;25074;-75
2021/10/14 12:12:18;;;;;;;23.55;17.23;;;16.00;99.90;;;;;;5064406;28;25085;-75
2021/10/14 12:14:44;;;;;;;23.77;18.25;;;16.00;99.90;;;;;;5056200;28;25088;-77
2021/10/14 12:17:12;;;;;;;25.40;16.25;;;16.10;99.90;;;;;;5073178;28;25071;-76
2021/10/14 12:19:49;;;;;;;22.05;15.95;;;16.10;99.90;;;;;;5063882;28;25062;-77
2021/10/14 12:22:18;;;;;;;21.48;16.00;;;16.10;99.90;;;;;;5065634;28;25066;-76
2021/10/14 12:25:03;;;;;;;25.17;16.63;;;16.20;99.90;;;;;;5049249;28;25055;-76
2021/10/14 12:27:56;;;;;;;20.15;15.77;;;16.10;99.90;;;;;;5050839;28;25051;-76
2021/10/14 12:30:29;;;;;;;28.60;17.33;;;16.10;99.90;;;;;;5068534;28;25073;-76
2021/10/14 12:33:12;;;;;;;19.33;16.17;;;16.20;99.90;;;;;;5040583;28;25073;-77
2021/10/14 12:35:42;;;;;;;23.15;15.52;;;16.10;99.90;;;;;;5055805;28;25071;-76